createdAt,value
2023-02-19T00:02:14.483Z,96196.56
2023-02-19T00:04:44.979Z,96209.63
2023-02-19T00:07:13.654Z,96198.53
2023-02-19T00:09:42.348Z,96200.78
2023-02-19T00:12:11.083Z,96196.47
2023-02-19T00:14:39.941Z,96200.06
2023-02-19T00:17:08.700Z,96200.88
2023-02-19T00:19:37.554Z,96197.41
2023-02-19T00:22:07.953Z,96202.97
2023-02-19T00:24:49.034Z,96208.78
2023-02-19T00:27:17.884Z,96217.91
2023-02-19T00:29:46.590Z,96210.53
2023-02-19T00:32:14.956Z,96220.78
2023-02-19T00:34:43.828Z,96221.63
2023-02-19T00:37:13.826Z,96212.88
2023-02-19T00:39:42.452Z,96209.63
2023-02-19T00:42:10.991Z,96221.03
2023-02-19T00:44:39.480Z,96215.31
2023-02-19T00:47:18.258Z,96220.69
2023-02-19T00:49:46.977Z,96211.94
2023-02-19T00:52:19.560Z,96214.50
2023-02-19T00:54:48.274Z,96218.13
2023-02-19T00:57:16.749Z,96218.13
2023-02-19T00:59:45.045Z,96208.59
2023-02-19T01:02:13.922Z,96205.78
2023-02-19T01:04:42.902Z,96213.00
2023-02-19T01:07:11.557Z,96195.78
2023-02-19T01:09:41.589Z,96201.81
2023-02-19T01:12:19.331Z,96189.13
2023-02-19T01:14:48.057Z,96194.47
2023-02-19T01:17:16.946Z,96178.06
2023-02-19T01:19:46.060Z,96192.38
2023-02-19T01:22:14.878Z,96175.59
2023-02-19T01:24:45.185Z,96184.00
2023-02-19T01:27:14.151Z,96194.00
2023-02-19T01:29:44.110Z,96175.25
2023-02-19T01:32:12.656Z,96173.75
2023-02-19T01:34:41.209Z,96185.84
2023-02-19T01:37:12.400Z,96180.50
2023-02-19T01:39:41.104Z,96168.53
2023-02-19T01:42:16.741Z,96163.16
2023-02-19T01:45:26.737Z,96153.16
2023-02-19T01:48:03.166Z,96169.44
2023-02-19T01:50:34.923Z,96165.25
2023-02-19T01:53:05.635Z,96161.53
2023-02-19T01:55:35.282Z,96171.28
2023-02-19T01:58:05.576Z,96167.19
2023-02-19T02:00:34.930Z,96173.03
2023-02-19T02:03:03.662Z,96165.94
2023-02-19T02:05:45.641Z,96162.91
2023-02-19T02:08:34.424Z,96159.53
2023-02-19T02:11:06.027Z,96163.84
2023-02-19T02:13:40.966Z,96152.06
2023-02-19T02:16:25.009Z,96152.06
2023-02-19T02:19:03.878Z,96151.97
2023-02-19T02:21:55.131Z,96154.50
2023-02-19T02:24:43.483Z,96151.63
2023-02-19T02:27:32.712Z,96154.50
2023-02-19T02:30:24.146Z,96143.56
2023-02-19T02:32:56.517Z,96141.94
2023-02-19T02:35:27.642Z,96137.78
2023-02-19T02:37:58.717Z,96130.28
2023-02-19T02:40:27.453Z,96133.81
2023-02-19T02:42:58.913Z,96130.28
2023-02-19T02:45:37.724Z,96116.59
2023-02-19T02:48:12.581Z,96114.03
2023-02-19T02:50:43.979Z,96113.19
2023-02-19T02:53:33.815Z,96103.91
2023-02-19T02:56:03.323Z,96111.59
2023-02-19T02:58:33.176Z,96110.19
2023-02-19T03:01:23.520Z,96110.28
2023-02-19T03:03:56.424Z,96097.97
2023-02-19T03:06:26.343Z,96106.22
2023-02-19T03:08:57.922Z,96104.03
2023-02-19T03:11:43.358Z,96107.38
2023-02-19T03:14:32.348Z,96101.22
2023-02-19T03:17:23.630Z,96095.63
2023-02-19T03:19:54.048Z,96098.56
2023-02-19T03:22:44.085Z,96092.97
2023-02-19T03:25:32.933Z,96083.63
2023-02-19T03:28:03.396Z,96075.03
2023-02-19T03:30:34.946Z,96069.09
2023-02-19T03:33:08.564Z,96073.41
2023-02-19T03:35:40.253Z,96077.59
2023-02-19T03:38:11.623Z,96073.50
2023-02-19T03:40:46.536Z,96084.31
2023-02-19T03:43:19.652Z,96083.28
2023-02-19T03:45:53.427Z,96088.41
2023-02-19T03:48:31.604Z,96078.97
2023-02-19T03:51:21.754Z,96085.03
2023-02-19T03:53:55.370Z,96080.97
2023-02-19T03:56:28.379Z,96081.53
2023-02-19T03:59:00.309Z,96064.75
2023-02-19T04:01:43.148Z,96057.22
2023-02-19T04:04:17.868Z,96049.53
2023-02-19T04:06:48.812Z,96054.66
2023-02-19T04:09:18.782Z,96050.72
2023-02-19T04:11:47.336Z,96066.06
2023-02-19T04:14:21.147Z,96069.88
2023-02-19T04:16:53.274Z,96052.09
2023-02-19T04:19:31.739Z,96059.66
2023-02-19T04:22:01.059Z,96058.47
2023-02-19T04:24:32.788Z,96065.09
2023-02-19T04:27:01.356Z,96035.78
2023-02-19T04:29:30.028Z,96040.69
2023-02-19T04:31:58.654Z,96031.38
2023-02-19T04:34:28.505Z,96048.13
2023-02-19T04:36:57.701Z,96041.03
2023-02-19T04:39:26.165Z,96036.94
2023-02-19T04:41:55.088Z,96042.88
2023-02-19T04:44:23.505Z,96042.19
2023-02-19T04:46:52.042Z,96042.81
2023-02-19T04:49:20.445Z,96021.25
2023-02-19T04:51:51.486Z,96026.38
2023-02-19T04:54:19.936Z,96032.16
2023-02-19T04:56:48.653Z,96025.88
2023-02-19T04:59:17.141Z,96019.75
2023-02-19T05:01:45.534Z,96015.22
2023-02-19T05:04:14.161Z,96012.75
2023-02-19T05:06:45.511Z,95995.56
2023-02-19T05:09:15.690Z,95997.28
2023-02-19T05:11:44.235Z,96001.38
2023-02-19T05:14:13.019Z,96010.78
2023-02-19T05:16:41.529Z,96004.25
2023-02-19T05:19:14.909Z,95995.44
2023-02-19T05:21:43.633Z,95979.41
2023-02-19T05:24:14.527Z,95955.34
2023-02-19T05:26:45.509Z,95973.25
2023-02-19T05:29:13.849Z,95978.94
2023-02-19T05:31:49.374Z,95985.72
2023-02-19T05:34:18.053Z,95971.03
2023-02-19T05:36:47.028Z,95971.84
2023-02-19T05:39:16.132Z,95971.03
2023-02-19T05:41:46.432Z,95968.13
2023-02-19T05:44:14.735Z,95960.22
2023-02-19T05:46:43.498Z,95940.13
2023-02-19T05:49:12.242Z,95946.63
2023-02-19T05:51:40.790Z,95959.53
2023-02-19T05:54:10.342Z,95949.06
2023-02-19T05:56:40.050Z,95950.69
2023-02-19T05:59:21.233Z,95963.94
2023-02-19T06:01:50.194Z,95974.41
2023-02-19T06:04:20.161Z,95987.69
2023-02-19T06:06:49.300Z,95990.69
2023-02-19T06:09:17.782Z,95989.88
2023-02-19T06:11:46.473Z,96000.22
2023-02-19T06:14:15.584Z,95996.72
2023-02-19T06:16:45.963Z,95989.19
2023-02-19T06:19:14.604Z,95989.41
2023-02-19T06:21:43.129Z,95999.88
2023-02-19T06:24:11.877Z,95997.41
2023-02-19T06:26:40.384Z,95996.94
2023-02-19T06:29:09.662Z,96002.31
2023-02-19T06:31:38.573Z,96008.09
2023-02-19T06:34:08.739Z,96008.09
2023-02-19T06:36:37.140Z,96007.56
2023-02-19T06:39:06.928Z,96010.31
2023-02-19T06:41:35.360Z,96008.94
2023-02-19T06:44:04.284Z,96007.41
2023-02-19T06:46:32.948Z,96009.25
2023-02-19T06:49:01.711Z,96008.59
2023-02-19T06:51:32.988Z,96022.63
2023-02-19T06:54:02.994Z,96017.31
2023-02-19T06:56:34.770Z,96021.59
2023-02-19T06:59:07.586Z,96030.19
2023-02-19T07:01:37.187Z,96013.00
2023-02-19T07:04:08.318Z,96004.06
2023-02-19T07:06:38.371Z,96031.94
2023-02-19T07:09:07.918Z,96033.13
2023-02-19T07:11:38.259Z,96025.34
2023-02-19T07:14:09.063Z,96006.72
2023-02-19T07:16:39.152Z,96016.94
2023-02-19T07:19:08.082Z,96011.84
2023-02-19T07:21:39.480Z,96015.94
2023-02-19T07:24:08.601Z,96015.94
2023-02-19T07:26:37.430Z,96010.13
2023-02-19T07:29:06.134Z,96013.28
2023-02-19T07:31:34.794Z,96019.88
2023-02-19T07:34:03.309Z,96011.06
2023-02-19T07:36:33.527Z,96025.94
2023-02-19T07:39:03.413Z,96023.97
2023-02-19T07:41:32.073Z,96033.25
2023-02-19T07:44:00.545Z,96023.97
2023-02-19T07:46:32.324Z,95971.84
2023-02-19T07:49:01.550Z,96030.00
2023-02-19T07:51:30.135Z,96027.81
2023-02-19T07:54:05.250Z,96037.47
2023-02-19T07:56:34.007Z,96034.91
2023-02-19T07:59:02.735Z,96030.72
2023-02-19T08:01:51.835Z,96025.59
2023-02-19T08:04:20.525Z,96032.69
2023-02-19T08:06:50.089Z,96037.09
2023-02-19T08:09:20.082Z,96031.50
2023-02-19T08:12:06.084Z,96040.59
2023-02-19T08:14:36.459Z,96042.69
2023-02-19T08:17:18.903Z,96051.41
2023-02-19T08:19:47.467Z,96060.03
2023-02-19T08:22:16.518Z,96052.81
2023-02-19T08:24:46.640Z,96069.56
2023-02-19T08:27:16.402Z,96070.94
2023-02-19T08:29:47.562Z,96082.03
2023-02-19T08:32:34.738Z,96087.00
2023-02-19T08:35:03.274Z,96076.66
2023-02-19T08:37:31.682Z,96084.22
2023-02-19T08:40:01.544Z,96098.53
2023-02-19T08:42:30.908Z,96092.38
2023-02-19T08:44:59.691Z,96103.19
2023-02-19T08:47:31.442Z,96101.94
2023-02-19T08:50:00.363Z,96107.47
2023-02-19T08:52:28.908Z,96120.00
2023-02-19T08:54:58.373Z,96124.88
2023-02-19T08:57:29.487Z,96127.47
2023-02-19T08:59:58.396Z,96141.75
2023-02-19T09:02:27.472Z,96150.81
2023-02-19T09:04:56.197Z,96154.59
2023-02-19T09:07:24.862Z,96139.72
2023-02-19T09:09:53.517Z,96149.66
2023-02-19T09:12:22.833Z,96162.94
2023-02-19T09:14:52.745Z,96167.34
2023-02-19T09:17:21.366Z,96158.97
2023-02-19T09:19:50.892Z,96167.47
2023-02-19T09:22:19.271Z,96159.44
2023-02-19T09:24:47.664Z,96145.19
2023-02-19T09:27:17.930Z,96153.25
2023-02-19T09:29:48.900Z,96156.63
2023-02-19T09:32:19.397Z,96163.50
2023-02-19T09:34:48.202Z,96153.63
2023-02-19T09:37:16.919Z,96154.50
2023-02-19T09:39:45.352Z,96140.69
2023-02-19T09:45:11.410Z,96139.28
2023-02-19T09:46:26.661Z,96139.34
2023-02-19T09:48:59.839Z,96159.38
2023-02-19T09:51:30.540Z,96147.94
2023-02-19T09:53:59.438Z,96150.06
2023-02-19T09:56:29.415Z,96161.53
2023-02-19T09:59:00.964Z,96152.50
2023-02-19T10:01:33.800Z,96156.28
2023-02-19T10:04:05.201Z,96158.78
2023-02-19T10:06:36.581Z,96157.34
2023-02-19T10:09:16.501Z,96170.06
2023-02-19T10:11:45.235Z,96151.69
2023-02-19T10:14:17.169Z,96164.66
2023-02-19T10:17:37.598Z,96174.75
2023-02-19T10:20:08.337Z,96185.19
2023-02-19T10:22:39.252Z,96190.16
2023-02-19T10:25:07.914Z,96192.88
2023-02-19T10:27:36.776Z,96172.75
2023-02-19T10:30:07.279Z,96188.56
2023-02-19T10:32:36.137Z,96177.25
2023-02-19T10:35:14.429Z,96162.44
2023-02-19T10:38:44.432Z,96143.22
2023-02-19T10:41:17.867Z,96156.13
2023-02-19T10:43:53.777Z,96159.00
2023-02-19T10:46:26.256Z,96161.56
2023-02-19T10:48:56.770Z,96167.53
2023-02-19T10:51:34.222Z,96161.44
2023-02-19T10:54:08.236Z,96156.03
2023-02-19T10:56:38.877Z,96158.78
2023-02-19T10:59:24.085Z,96162.78
2023-02-19T11:02:03.516Z,96168.50
2023-02-19T11:04:35.685Z,96184.59
2023-02-19T11:07:11.452Z,96186.22
2023-02-19T11:09:41.463Z,96177.38
2023-02-19T11:12:10.578Z,96190.19
2023-02-19T11:14:39.596Z,96178.66
2023-02-19T11:17:08.507Z,96200.56
2023-02-19T11:19:38.933Z,96199.66
2023-02-19T11:22:28.785Z,96192.16
2023-02-19T11:24:59.472Z,96206.44
2023-02-19T11:27:28.180Z,96193.59
2023-02-19T11:29:56.625Z,96207.41
2023-02-19T11:32:27.964Z,96212.19
2023-02-19T11:35:18.055Z,96197.69
2023-02-19T11:37:59.083Z,96203.59
2023-02-19T11:40:39.153Z,96196.66
2023-02-19T11:43:22.554Z,96200.84
2023-02-19T11:45:55.143Z,96191.78
2023-02-19T11:48:48.263Z,96197.63
2023-02-19T11:51:23.942Z,96197.16
2023-02-19T11:54:02.790Z,96175.91
2023-02-19T11:56:36.027Z,96177.56
2023-02-19T11:59:06.740Z,96179.09
2023-02-19T12:02:14.164Z,96181.19
2023-02-19T12:05:01.675Z,96178.97
2023-02-19T12:07:48.519Z,96192.94
2023-02-19T12:10:23.521Z,96192.56
2023-02-19T12:13:20.712Z,96189.28
2023-02-19T12:15:58.693Z,96189.09
2023-02-19T12:18:59.062Z,96182.31
2023-02-19T12:21:57.178Z,96189.63
2023-02-19T12:24:56.923Z,96137.03
2023-02-19T12:27:42.514Z,96169.94
2023-02-19T12:30:27.133Z,96167.31
2023-02-19T12:33:26.946Z,96175.50
2023-02-19T12:36:02.560Z,96165.75
2023-02-19T12:38:36.923Z,96176.16
2023-02-19T12:41:21.772Z,96169.00
2023-02-19T12:43:58.214Z,96186.38
2023-02-19T12:46:31.373Z,96169.00
2023-02-19T12:49:03.009Z,96175.94
2023-02-19T12:51:37.073Z,96167.69
2023-02-19T12:54:08.649Z,96173.09
2023-02-19T12:56:41.693Z,96175.69
2023-02-19T12:59:15.893Z,96181.97
2023-02-19T13:01:52.402Z,96171.56
2023-02-19T13:04:28.444Z,96179.34
2023-02-19T13:07:00.871Z,96164.78
2023-02-19T13:09:33.468Z,96171.13
2023-02-19T13:12:06.112Z,96185.41
2023-02-19T13:14:39.128Z,96195.72
2023-02-19T13:17:18.177Z,96188.81
2023-02-19T13:19:48.859Z,96187.56
2023-02-19T13:22:43.552Z,96210.97
2023-02-19T13:25:13.203Z,96190.50
2023-02-19T13:28:14.773Z,96197.22
2023-02-19T13:31:16.680Z,96190.06
2023-02-19T13:33:55.023Z,96200.25
2023-02-19T13:36:25.595Z,96197.94
2023-02-19T13:38:57.600Z,96193.72
2023-02-19T13:41:30.752Z,96198.84
2023-02-19T13:44:05.407Z,96210.53
2023-02-19T13:46:43.571Z,96213.13
2023-02-19T13:49:42.869Z,96208.13
2023-02-19T13:52:42.260Z,96216.50
2023-02-19T13:55:46.871Z,96219.88
2023-02-19T13:58:55.616Z,96237.94
2023-02-19T14:02:06.355Z,96232.22
2023-02-19T14:04:50.404Z,96225.59
2023-02-19T14:07:50.592Z,96239.00
2023-02-19T14:11:08.694Z,96237.19
2023-02-19T14:14:27.076Z,96239.53
2023-02-19T14:17:08.716Z,96232.53
2023-02-19T14:19:53.665Z,96232.50
2023-02-19T14:22:50.109Z,96233.53
2023-02-19T14:25:50.035Z,96258.41
2023-02-19T14:28:51.790Z,96262.50
2023-02-19T14:31:27.604Z,96274.19
2023-02-19T14:37:00.737Z,96248.22
2023-02-19T14:39:33.018Z,96262.47
2023-02-19T14:42:03.349Z,96248.41
2023-02-19T14:44:32.759Z,96274.50
2023-02-19T14:47:06.027Z,96266.63
2023-02-19T14:49:42.758Z,96278.09
2023-02-19T14:52:21.066Z,96277.59
2023-02-19T14:54:52.344Z,96279.41
2023-02-19T14:57:25.076Z,96297.25
2023-02-19T14:59:56.124Z,96293.75
2023-02-19T15:02:26.200Z,96287.25
2023-02-19T15:04:59.060Z,96282.13
2023-02-19T15:07:30.656Z,96292.97
2023-02-19T15:10:06.076Z,96284.69
2023-02-19T15:12:37.298Z,96281.09
2023-02-19T15:15:08.152Z,96272.00
2023-02-19T15:17:39.619Z,96273.41
2023-02-19T15:20:13.055Z,96277.63
2023-02-19T15:22:43.275Z,96278.03
2023-02-19T15:25:16.386Z,96280.88
2023-02-19T15:27:46.964Z,96275.97
2023-02-19T15:30:22.732Z,96289.75
2023-02-19T15:32:58.666Z,96292.41
2023-02-19T15:35:32.907Z,96302.16
2023-02-19T15:38:03.248Z,96308.69
2023-02-19T15:40:33.313Z,96311.66
2023-02-19T15:43:02.147Z,96313.81
2023-02-19T15:45:37.257Z,96323.63
2023-02-19T15:48:08.450Z,96323.53
2023-02-19T15:50:40.944Z,96318.72
2023-02-19T15:53:14.250Z,96324.63
2023-02-19T15:55:46.120Z,96329.47
2023-02-19T15:58:17.722Z,96337.25
2023-02-19T16:00:48.668Z,96352.66
2023-02-19T16:03:19.885Z,96348.38
2023-02-19T16:05:48.832Z,96341.41
2023-02-19T16:08:23.947Z,96364.22
2023-02-19T16:10:59.051Z,96360.22
2023-02-19T16:13:29.058Z,96366.25
2023-02-19T16:16:00.830Z,96362.16
2023-02-19T16:18:30.204Z,96365.31
2023-02-19T16:21:01.775Z,96371.66
2023-02-19T16:23:34.744Z,96366.38
2023-02-19T16:26:04.396Z,96379.03
2023-02-19T16:28:37.913Z,96379.22
2023-02-19T16:31:08.000Z,96377.91
2023-02-19T16:33:41.980Z,96381.25
2023-02-19T16:36:22.955Z,96382.19
2023-02-19T16:39:10.101Z,96379.13
2023-02-19T16:42:10.462Z,96380.16
2023-02-19T16:44:39.093Z,96389.53
2023-02-19T16:47:14.115Z,96380.88
2023-02-19T16:49:44.409Z,96394.25
2023-02-19T16:52:17.158Z,96384.31
2023-02-19T16:54:49.144Z,96387.50
2023-02-19T16:57:18.298Z,96404.44
2023-02-19T16:59:47.371Z,96397.63
2023-02-19T17:02:23.081Z,96409.66
2023-02-19T17:04:55.305Z,96421.09
2023-02-19T17:07:24.389Z,96438.84
2023-02-19T17:09:54.380Z,96459.03
2023-02-19T17:12:24.132Z,96476.38
2023-02-19T17:14:52.472Z,96506.09
2023-02-19T17:17:23.428Z,96510.72
2023-02-19T17:19:52.045Z,96516.16
2023-02-19T17:22:22.605Z,96519.59
2023-02-19T17:24:51.321Z,96525.66
2023-02-19T17:27:21.343Z,96521.19
2023-02-19T17:29:49.809Z,96525.56
2023-02-19T17:32:29.057Z,96540.66
2023-02-19T17:35:00.472Z,96536.81
2023-02-19T17:37:30.056Z,96552.28
2023-02-19T17:40:01.905Z,96556.81
2023-02-19T17:42:32.463Z,96553.56
2023-02-19T17:45:11.555Z,96549.09
2023-02-19T17:47:40.675Z,96548.50
2023-02-19T17:50:13.181Z,96555.53
2023-02-19T17:52:44.867Z,96559.94
2023-02-19T17:55:15.845Z,96578.66
2023-02-19T17:57:46.101Z,96582.75
2023-02-19T18:00:16.834Z,96586.78
2023-02-19T18:02:45.537Z,96590.81
2023-02-19T18:05:14.285Z,96599.94
2023-02-19T18:07:47.212Z,96601.56
2023-02-19T18:10:20.444Z,96601.50
2023-02-19T18:12:52.529Z,96608.75
2023-02-19T18:15:23.213Z,96613.19
2023-02-19T18:17:52.442Z,96606.75
2023-02-19T18:20:25.898Z,96605.09
2023-02-19T18:22:55.677Z,96612.75
2023-02-19T18:25:25.581Z,96617.50
2023-02-19T18:27:55.942Z,96624.31
2023-02-19T18:30:24.847Z,96620.88
2023-02-19T18:32:53.758Z,96627.63
2023-02-19T18:35:23.464Z,96631.28
2023-02-19T18:37:54.005Z,96633.19
2023-02-19T18:40:23.485Z,96641.56
2023-02-19T18:42:52.483Z,96647.41
2023-02-19T18:45:23.583Z,96639.19
2023-02-19T18:47:53.311Z,96631.63
2023-02-19T18:50:22.075Z,96634.09
2023-02-19T18:52:51.775Z,96623.06
2023-02-19T18:55:21.097Z,96645.28
2023-02-19T18:57:50.505Z,96645.50
2023-02-19T19:00:26.781Z,96643.13
2023-02-19T19:02:59.776Z,96646.00
2023-02-19T19:05:29.261Z,96638.28
2023-02-19T19:07:59.590Z,96643.22
2023-02-19T19:10:32.984Z,96648.03
2023-02-19T19:13:03.163Z,96652.25
2023-02-19T19:15:36.906Z,96659.31
2023-02-19T19:18:06.442Z,96657.81
2023-02-19T19:20:37.415Z,96665.28
2023-02-19T19:23:06.589Z,96666.28
2023-02-19T19:25:38.730Z,96655.44
2023-02-19T19:28:08.740Z,96658.38
2023-02-19T19:30:39.985Z,96660.91
2023-02-19T19:33:14.087Z,96663.88
2023-02-19T19:35:45.899Z,96672.44
2023-02-19T19:38:16.763Z,96681.56
2023-02-19T19:40:47.685Z,96685.56
2023-02-19T19:43:17.310Z,96692.41
2023-02-19T19:45:47.429Z,96690.53
2023-02-19T19:48:16.142Z,96693.13
2023-02-19T19:50:45.311Z,96690.00
2023-02-19T19:53:14.031Z,96691.97
2023-02-19T19:55:46.446Z,96701.66
2023-02-19T19:58:17.039Z,96701.47
2023-02-19T20:00:49.985Z,96694.50
2023-02-19T20:03:18.635Z,96705.13
2023-02-19T20:05:50.449Z,96697.34
2023-02-19T20:08:20.639Z,96699.53
2023-02-19T20:10:51.950Z,96711.97
2023-02-19T20:13:25.931Z,96721.78
2023-02-19T20:16:00.561Z,96724.97
2023-02-19T20:18:29.498Z,96726.56
2023-02-19T20:21:05.003Z,96725.56
2023-02-19T20:23:33.855Z,96719.56
2023-02-19T20:26:08.540Z,96711.50
2023-02-19T20:28:37.784Z,96721.91
2023-02-19T20:31:11.155Z,96710.97
2023-02-19T20:33:46.993Z,96710.16
2023-02-19T20:36:22.522Z,96722.13
2023-02-19T20:38:54.838Z,96728.25
2023-02-19T20:41:46.833Z,96734.78
2023-02-19T20:44:16.252Z,96733.13
2023-02-19T20:46:48.707Z,96723.19
2023-02-19T20:49:18.752Z,96733.44
2023-02-19T20:51:48.950Z,96739.16
2023-02-19T20:54:18.314Z,96739.78
2023-02-19T20:56:47.694Z,96740.34
2023-02-19T20:59:17.642Z,96738.94
2023-02-19T21:01:48.138Z,96741.81
2023-02-19T21:04:18.477Z,96743.25
2023-02-19T21:06:47.407Z,96732.81
2023-02-19T21:09:16.235Z,96741.13
2023-02-19T21:11:45.491Z,96740.94
2023-02-19T21:14:14.500Z,96739.16
2023-02-19T21:16:46.309Z,96741.63
2023-02-19T21:19:19.967Z,96741.78
2023-02-19T21:22:03.357Z,96741.88
2023-02-19T21:24:32.945Z,96744.56
2023-02-19T21:27:01.861Z,96743.75
2023-02-19T21:29:30.873Z,96737.75
2023-02-19T21:32:01.294Z,96736.19
2023-02-19T21:34:31.689Z,96727.72
2023-02-19T21:37:01.357Z,96726.75
2023-02-19T21:39:31.731Z,96730.09
2023-02-19T21:42:02.523Z,96735.19
2023-02-19T21:44:32.591Z,96728.63
2023-02-19T21:47:01.135Z,96729.31
2023-02-19T21:49:31.058Z,96735.19
2023-02-19T21:51:59.743Z,96741.88
2023-02-19T21:54:28.358Z,96747.78
2023-02-19T21:57:03.701Z,96751.31
2023-02-19T21:59:32.367Z,96750.38
2023-02-19T22:02:01.161Z,96751.13
2023-02-19T22:04:31.157Z,96747.91
2023-02-19T22:07:00.151Z,96750.63
2023-02-19T22:09:28.900Z,96757.34
2023-02-19T22:11:57.552Z,96764.19
2023-02-19T22:14:26.093Z,96767.25
2023-02-19T22:16:54.888Z,96771.41
2023-02-19T22:19:23.916Z,96767.25
2023-02-19T22:21:54.287Z,96773.97
2023-02-19T22:24:47.268Z,96772.34
2023-02-19T22:27:18.336Z,96776.69
2023-02-19T22:29:51.962Z,96768.16
2023-02-19T22:32:20.856Z,96784.81
2023-02-19T22:34:49.716Z,96771.81
2023-02-19T22:37:21.630Z,96769.03
2023-02-19T22:39:56.773Z,96760.91
2023-02-19T22:42:25.611Z,96764.88
2023-02-19T22:45:03.246Z,96769.97
2023-02-19T22:47:31.848Z,96768.06
2023-02-19T22:50:00.451Z,96775.72
2023-02-19T22:52:30.841Z,96774.88
2023-02-19T22:55:01.138Z,96773.97
2023-02-19T22:57:30.571Z,96778.91
2023-02-19T22:59:59.058Z,96790.94
2023-02-19T23:02:27.438Z,96790.84
2023-02-19T23:05:02.371Z,96783.78
2023-02-19T23:07:32.483Z,96786.25
2023-02-19T23:10:01.422Z,96792.88
2023-02-19T23:12:30.455Z,96791.25
2023-02-19T23:15:01.046Z,96799.63
2023-02-19T23:17:32.768Z,96804.00
2023-02-19T23:20:01.723Z,96801.44
2023-02-19T23:22:34.244Z,96801.63
2023-02-19T23:25:05.001Z,96794.84
2023-02-19T23:27:33.863Z,96799.91
2023-02-19T23:30:03.600Z,96796.44
2023-02-19T23:32:32.060Z,96798.72
2023-02-19T23:35:00.555Z,96797.09
2023-02-19T23:37:28.938Z,96792.75
2023-02-19T23:40:01.378Z,96778.97
2023-02-19T23:42:30.012Z,96800.53
2023-02-19T23:44:58.636Z,96792.25
2023-02-19T23:47:29.215Z,96789.03
2023-02-19T23:49:59.182Z,96793.22
2023-02-19T23:52:27.649Z,96796.59
2023-02-19T23:55:01.402Z,96793.06
2023-02-19T23:57:30.179Z,96788.03
2023-02-19T23:59:58.892Z,96786.91
